sensor_id;sensor_type;location;lat;lon;timestamp;pressure;altitude;pressure_sealevel;temperature;humidity
37856;BME280;23694;43.274;26.924;2023-04-16T00:00:59;98539.53;;;13.20;86.95
37856;BME280;23694;43.274;26.924;2023-04-16T00:03:25;98543.13;;;13.19;86.53
37856;BME280;23694;43.274;26.924;2023-04-16T00:05:51;98543.63;;;13.13;87.27
37856;BME280;23694;43.274;26.924;2023-04-16T00:08:21;98538.72;;;13.20;87.07
37856;BME280;23694;43.274;26.924;2023-04-16T00:10:50;98541.22;;;13.21;86.89
37856;BME280;23694;43.274;26.924;2023-04-16T00:13:16;98539.41;;;13.22;86.67
37856;BME280;23694;43.274;26.924;2023-04-16T00:15:42;98539.72;;;13.08;87.30
37856;BME280;23694;43.274;26.924;2023-04-16T00:18:08;98539.59;;;12.88;89.25
37856;BME280;23694;43.274;26.924;2023-04-16T00:20:34;98542.03;;;12.80;89.95
37856;BME280;23694;43.274;26.924;2023-04-16T00:23:00;98542.84;;;12.81;90.51
37856;BME280;23694;43.274;26.924;2023-04-16T00:46:53;98532.91;;;12.11;100.00
37856;BME280;23694;43.274;26.924;2023-04-16T00:49:20;98533.28;;;11.95;100.00
37856;BME280;23694;43.274;26.924;2023-04-16T00:51:46;98533.78;;;11.89;100.00
37856;BME280;23694;43.274;26.924;2023-04-16T00:54:12;98529.03;;;11.71;100.00
37856;BME280;23694;43.274;26.924;2023-04-16T00:56:38;98531.66;;;11.71;100.00
37856;BME280;23694;43.274;26.924;2023-04-16T00:59:05;98538.78;;;11.69;100.00
37856;BME280;23694;43.274;26.924;2023-04-16T01:01:31;98527.22;;;11.61;100.00
37856;BME280;23694;43.274;26.924;2023-04-16T01:03:57;98529.84;;;11.61;100.00
37856;BME280;23694;43.274;26.924;2023-04-16T01:06:23;98529.84;;;11.61;100.00
37856;BME280;23694;43.274;26.924;2023-04-16T01:08:49;98530.56;;;11.63;100.00
37856;BME280;23694;43.274;26.924;2023-04-16T01:11:15;98529.00;;;11.60;100.00
37856;BME280;23694;43.274;26.924;2023-04-16T01:13:41;98522.81;;;11.61;100.00
37856;BME280;23694;43.274;26.924;2023-04-16T01:16:10;98523.16;;;11.68;100.00
37856;BME280;23694;43.274;26.924;2023-04-16T01:18:37;98525.91;;;11.66;100.00
37856;BME280;23694;43.274;26.924;2023-04-16T01:21:04;98521.38;;;11.68;100.00
37856;BME280;23694;43.274;26.924;2023-04-16T01:23:30;98518.63;;;11.70;100.00
37856;BME280;23694;43.274;26.924;2023-04-16T01:25:56;98513.50;;;11.68;100.00
37856;BME280;23694;43.274;26.924;2023-04-16T01:28:22;98521.63;;;11.77;100.00
37856;BME280;23694;43.274;26.924;2023-04-16T01:30:48;98518.16;;;11.76;100.00
37856;BME280;23694;43.274;26.924;2023-04-16T01:33:14;98520.56;;;11.79;100.00
37856;BME280;23694;43.274;26.924;2023-04-16T01:35:42;98515.31;;;11.79;100.00
37856;BME280;23694;43.274;26.924;2023-04-16T01:38:09;98506.84;;;11.75;100.00
37856;BME280;23694;43.274;26.924;2023-04-16T01:40:36;98513.88;;;11.86;100.00
37856;BME280;23694;43.274;26.924;2023-04-16T01:43:03;98514.97;;;11.84;100.00
37856;BME280;23694;43.274;26.924;2023-04-16T01:45:33;98512.47;;;11.82;100.00
37856;BME280;23694;43.274;26.924;2023-04-16T01:47:59;98507.34;;;11.81;100.00
37856;BME280;23694;43.274;26.924;2023-04-16T01:50:25;98512.34;;;11.84;100.00
37856;BME280;23694;43.274;26.924;2023-04-16T01:52:52;98516.50;;;11.86;100.00
37856;BME280;23694;43.274;26.924;2023-04-16T01:55:18;98502.78;;;11.83;100.00
37856;BME280;23694;43.274;26.924;2023-04-16T01:57:44;98515.31;;;11.79;100.00
37856;BME280;23694;43.274;26.924;2023-04-16T02:00:10;98510.06;;;11.79;100.00
37856;BME280;23694;43.274;26.924;2023-04-16T02:02:36;98501.59;;;11.75;100.00
37856;BME280;23694;43.274;26.924;2023-04-16T02:05:02;98513.03;;;11.74;100.00
37856;BME280;23694;43.274;26.924;2023-04-16T02:07:29;98511.00;;;11.67;100.00
37856;BME280;23694;43.274;26.924;2023-04-16T02:09:56;98508.25;;;11.68;100.00
37856;BME280;23694;43.274;26.924;2023-04-16T02:12:23;98515.28;;;11.68;100.00
37856;BME280;23694;43.274;26.924;2023-04-16T02:14:49;98512.78;;;11.66;100.00
37856;BME280;23694;43.274;26.924;2023-04-16T02:17:15;98506.72;;;11.66;100.00
37856;BME280;23694;43.274;26.924;2023-04-16T02:19:41;98494.41;;;11.66;100.00
37856;BME280;23694;43.274;26.924;2023-04-16T02:22:07;98500.16;;;11.71;100.00
37856;BME280;23694;43.274;26.924;2023-04-16T02:24:33;98508.50;;;11.77;100.00
37856;BME280;23694;43.274;26.924;2023-04-16T02:27:00;98499.47;;;11.81;100.00
37856;BME280;23694;43.274;26.924;2023-04-16T02:29:26;98497.78;;;11.80;100.00
37856;BME280;23694;43.274;26.924;2023-04-16T02:31:52;98499.91;;;11.86;100.00
37856;BME280;23694;43.274;26.924;2023-04-16T02:34:18;98499.56;;;11.90;100.00
37856;BME280;23694;43.274;26.924;2023-04-16T02:36:44;98499.69;;;11.89;100.00
37856;BME280;23694;43.274;26.924;2023-04-16T02:39:10;98502.41;;;11.87;100.00
37856;BME280;23694;43.274;26.924;2023-04-16T02:41:36;98495.03;;;11.81;100.00
37856;BME280;23694;43.274;26.924;2023-04-16T02:44:03;98506.00;;;11.86;100.00
37856;BME280;23694;43.274;26.924;2023-04-16T02:46:29;98508.63;;;11.86;100.00
37856;BME280;23694;43.274;26.924;2023-04-16T02:48:55;98493.97;;;11.84;100.00
37856;BME280;23694;43.274;26.924;2023-04-16T02:51:21;98510.06;;;11.90;100.00
37856;BME280;23694;43.274;26.924;2023-04-16T02:53:47;98500.13;;;11.94;100.00
37856;BME280;23694;43.274;26.924;2023-04-16T02:56:13;98503.84;;;11.91;100.00
37856;BME280;23694;43.274;26.924;2023-04-16T02:58:39;98500.38;;;11.91;100.00
37856;BME280;23694;43.274;26.924;2023-04-16T03:01:05;98515.16;;;11.92;100.00
37856;BME280;23694;43.274;26.924;2023-04-16T03:03:31;98503.84;;;11.91;100.00
37856;BME280;23694;43.274;26.924;2023-04-16T03:05:57;98521.00;;;11.95;100.00
37856;BME280;23694;43.274;26.924;2023-04-16T03:08:23;98518.00;;;12.00;100.00
37856;BME280;23694;43.274;26.924;2023-04-16T03:10:49;98521.09;;;12.05;100.00
37856;BME280;23694;43.274;26.924;2023-04-16T03:13:16;98523.22;;;12.11;100.00
37856;BME280;23694;43.274;26.924;2023-04-16T03:15:47;98522.94;;;12.25;100.00
37856;BME280;23694;43.274;26.924;2023-04-16T03:18:13;98523.88;;;12.24;100.00
37856;BME280;23694;43.274;26.924;2023-04-16T03:20:39;98523.63;;;12.27;100.00
37856;BME280;23694;43.274;26.924;2023-04-16T03:23:05;98528.63;;;12.30;100.00
37856;BME280;23694;43.274;26.924;2023-04-16T03:25:31;98512.81;;;12.53;100.00
37856;BME280;23694;43.274;26.924;2023-04-16T03:27:57;98524.22;;;12.63;100.00
37856;BME280;23694;43.274;26.924;2023-04-16T03:30:23;98524.53;;;12.69;100.00
37856;BME280;23694;43.274;26.924;2023-04-16T03:32:49;98522.47;;;12.73;100.00
37856;BME280;23694;43.274;26.924;2023-04-16T03:35:16;98521.44;;;12.85;100.00
37856;BME280;23694;43.274;26.924;2023-04-16T03:37:43;98521.97;;;12.79;100.00
37856;BME280;23694;43.274;26.924;2023-04-16T03:40:09;98526.88;;;12.93;100.00
37856;BME280;23694;43.274;26.924;2023-04-16T03:42:35;98538.75;;;13.09;100.00
37856;BME280;23694;43.274;26.924;2023-04-16T03:45:02;98547.47;;;12.88;100.00
37856;BME280;23694;43.274;26.924;2023-04-16T03:47:28;98542.97;;;13.00;100.00
37856;BME280;23694;43.274;26.924;2023-04-16T03:49:54;98540.94;;;13.04;100.00
37856;BME280;23694;43.274;26.924;2023-04-16T03:52:21;98549.94;;;13.01;100.00
37856;BME280;23694;43.274;26.924;2023-04-16T03:54:47;98555.69;;;13.16;100.00
37856;BME280;23694;43.274;26.924;2023-04-16T03:57:13;98554.34;;;13.21;100.00
37856;BME280;23694;43.274;26.924;2023-04-16T03:59:39;98550.81;;;13.32;100.00
37856;BME280;23694;43.274;26.924;2023-04-16T04:02:05;98555.81;;;13.35;100.00
37856;BME280;23694;43.274;26.924;2023-04-16T04:04:31;98551.34;;;13.26;100.00
37856;BME280;23694;43.274;26.924;2023-04-16T04:06:57;98550.59;;;13.45;100.00
37856;BME280;23694;43.274;26.924;2023-04-16T04:09:23;98554.00;;;13.36;100.00
37856;BME280;23694;43.274;26.924;2023-04-16T04:11:49;98549.09;;;13.21;100.00
37856;BME280;23694;43.274;26.924;2023-04-16T04:14:15;98554.09;;;13.24;100.00
37856;BME280;23694;43.274;26.924;2023-04-16T04:16:41;98551.38;;;13.36;100.00
37856;BME280;23694;43.274;26.924;2023-04-16T04:19:07;98534.53;;;13.17;100.00
37856;BME280;23694;43.274;26.924;2023-04-16T04:21:33;98552.88;;;13.28;100.00
37856;BME280;23694;43.274;26.924;2023-04-16T04:23:59;98553.53;;;13.51;100.00
37856;BME280;23694;43.274;26.924;2023-04-16T04:26:25;98544.69;;;13.62;100.00
37856;BME280;23694;43.274;26.924;2023-04-16T04:28:51;98550.31;;;13.78;100.00
37856;BME280;23694;43.274;26.924;2023-04-16T04:31:17;98554.78;;;13.97;99.19
37856;BME280;23694;43.274;26.924;2023-04-16T04:33:44;98552.59;;;14.12;97.88
37856;BME280;23694;43.274;26.924;2023-04-16T04:36:10;98547.59;;;14.18;96.76
37856;BME280;23694;43.274;26.924;2023-04-16T04:38:36;98549.41;;;14.27;96.06
37856;BME280;23694;43.274;26.924;2023-04-16T04:41:02;98555.13;;;14.33;95.39
37856;BME280;23694;43.274;26.924;2023-04-16T04:43:28;98559.84;;;14.39;94.70
37856;BME280;23694;43.274;26.924;2023-04-16T04:45:54;98566.38;;;14.35;94.28
37856;BME280;23694;43.274;26.924;2023-04-16T04:48:20;98558.75;;;14.41;93.88
37856;BME280;23694;43.274;26.924;2023-04-16T04:50:51;98559.59;;;14.51;93.12
37856;BME280;23694;43.274;26.924;2023-04-16T04:53:18;98553.50;;;14.51;92.88
37856;BME280;23694;43.274;26.924;2023-04-16T04:55:44;98566.00;;;14.49;92.92
37856;BME280;23694;43.274;26.924;2023-04-16T04:58:10;98566.41;;;14.44;93.91
37856;BME280;23694;43.274;26.924;2023-04-16T05:00:36;98567.84;;;14.27;95.25
37856;BME280;23694;43.274;26.924;2023-04-16T05:03:04;98556.09;;;14.32;95.80
37856;BME280;23694;43.274;26.924;2023-04-16T05:05:31;98561.81;;;14.56;94.36
37856;BME280;23694;43.274;26.924;2023-04-16T05:07:57;98567.63;;;14.79;93.70
37856;BME280;23694;43.274;26.924;2023-04-16T05:10:23;98566.34;;;15.12;89.89
37856;BME280;23694;43.274;26.924;2023-04-16T05:12:49;98565.31;;;15.32;88.27
37856;BME280;23694;43.274;26.924;2023-04-16T05:15:15;98563.28;;;15.53;87.46
37856;BME280;23694;43.274;26.924;2023-04-16T05:17:41;98564.16;;;15.44;86.05
37856;BME280;23694;43.274;26.924;2023-04-16T05:20:08;98568.69;;;15.71;86.65
37856;BME280;23694;43.274;26.924;2023-04-16T05:22:34;98565.69;;;16.11;83.21
37856;BME280;23694;43.274;26.924;2023-04-16T05:25:01;98572.00;;;16.28;82.00
37856;BME280;23694;43.274;26.924;2023-04-16T05:27:27;98570.81;;;16.13;80.75
37856;BME280;23694;43.274;26.924;2023-04-16T05:29:53;98570.56;;;15.89;82.53
37856;BME280;23694;43.274;26.924;2023-04-16T05:32:19;98572.44;;;15.96;83.58
37856;BME280;23694;43.274;26.924;2023-04-16T05:34:45;98573.41;;;16.23;81.41
37856;BME280;23694;43.274;26.924;2023-04-16T05:37:11;98554.63;;;16.43;80.60
37856;BME280;23694;43.274;26.924;2023-04-16T05:39:37;98565.38;;;16.77;79.00
37856;BME280;23694;43.274;26.924;2023-04-16T05:42:03;98567.44;;;17.61;74.74
37856;BME280;23694;43.274;26.924;2023-04-16T05:44:29;98575.47;;;18.20;71.64
37856;BME280;23694;43.274;26.924;2023-04-16T05:46:57;98565.47;;;18.05;70.96
37856;BME280;23694;43.274;26.924;2023-04-16T05:49:23;98571.69;;;17.80;72.21
37856;BME280;23694;43.274;26.924;2023-04-16T05:51:49;98564.97;;;17.08;75.35
37856;BME280;23694;43.274;26.924;2023-04-16T05:54:15;98568.75;;;16.52;78.47
37856;BME280;23694;43.274;26.924;2023-04-16T05:56:41;98563.94;;;16.47;79.79
37856;BME280;23694;43.274;26.924;2023-04-16T05:59:07;98562.28;;;16.19;81.78
37856;BME280;23694;43.274;26.924;2023-04-16T06:01:33;98570.34;;;16.00;83.37
37856;BME280;23694;43.274;26.924;2023-04-16T06:03:59;98573.13;;;15.98;84.58
37856;BME280;23694;43.274;26.924;2023-04-16T06:06:25;98573.19;;;15.61;86.45
37856;BME280;23694;43.274;26.924;2023-04-16T06:08:52;98580.41;;;15.49;88.31
37856;BME280;23694;43.274;26.924;2023-04-16T06:11:18;98573.47;;;15.48;88.78
37856;BME280;23694;43.274;26.924;2023-04-16T06:13:44;98570.59;;;15.32;90.01
37856;BME280;23694;43.274;26.924;2023-04-16T06:16:10;98568.66;;;15.34;90.52
37856;BME280;23694;43.274;26.924;2023-04-16T06:18:36;98564.59;;;15.40;90.03
37856;BME280;23694;43.274;26.924;2023-04-16T06:21:03;98563.38;;;15.34;89.51
37856;BME280;23694;43.274;26.924;2023-04-16T06:23:29;98570.28;;;14.79;93.40
37856;BME280;23694;43.274;26.924;2023-04-16T06:25:55;98563.59;;;14.84;92.97
37856;BME280;23694;43.274;26.924;2023-04-16T06:28:21;98561.50;;;14.88;94.17
37856;BME280;23694;43.274;26.924;2023-04-16T06:30:47;98562.63;;;15.05;93.03
37856;BME280;23694;43.274;26.924;2023-04-16T06:33:13;98563.03;;;15.10;92.82
37856;BME280;23694;43.274;26.924;2023-04-16T06:35:40;98561.38;;;14.99;93.03
37856;BME280;23694;43.274;26.924;2023-04-16T06:38:06;98563.63;;;14.75;95.37
37856;BME280;23694;43.274;26.924;2023-04-16T06:40:32;98566.81;;;14.78;95.27
37856;BME280;23694;43.274;26.924;2023-04-16T06:42:58;98554.19;;;14.53;96.74
37856;BME280;23694;43.274;26.924;2023-04-16T06:45:27;98563.06;;;14.42;98.09
37856;BME280;23694;43.274;26.924;2023-04-16T06:47:53;98562.50;;;14.58;98.09
37856;BME280;23694;43.274;26.924;2023-04-16T06:50:19;98560.84;;;14.57;97.45
37856;BME280;23694;43.274;26.924;2023-04-16T06:52:46;98572.09;;;14.69;96.44
37856;BME280;23694;43.274;26.924;2023-04-16T06:55:12;98577.91;;;14.72;96.16
37856;BME280;23694;43.274;26.924;2023-04-16T06:57:39;98568.19;;;14.73;96.41
37856;BME280;23694;43.274;26.924;2023-04-16T07:00:06;98568.06;;;14.65;96.44
37856;BME280;23694;43.274;26.924;2023-04-16T07:02:32;98571.81;;;14.43;99.02
37856;BME280;23694;43.274;26.924;2023-04-16T07:04:58;98573.44;;;14.34;99.80
37856;BME280;23694;43.274;26.924;2023-04-16T07:07:24;98577.50;;;14.48;97.62
37856;BME280;23694;43.274;26.924;2023-04-16T07:09:50;98578.19;;;14.50;96.92
37856;BME280;23694;43.274;26.924;2023-04-16T07:12:17;98577.63;;;14.56;96.81
37856;BME280;23694;43.274;26.924;2023-04-16T07:14:43;98558.78;;;14.51;96.60
37856;BME280;23694;43.274;26.924;2023-04-16T07:17:09;98574.31;;;14.54;97.97
37856;BME280;23694;43.274;26.924;2023-04-16T07:19:35;98576.81;;;14.65;95.41
37856;BME280;23694;43.274;26.924;2023-04-16T07:22:02;98572.78;;;14.61;96.34
37856;BME280;23694;43.274;26.924;2023-04-16T07:24:28;98574.84;;;14.96;95.48
37856;BME280;23694;43.274;26.924;2023-04-16T07:26:54;98575.09;;;14.93;93.93
37856;BME280;23694;43.274;26.924;2023-04-16T07:29:20;98579.28;;;14.86;94.68
37856;BME280;23694;43.274;26.924;2023-04-16T07:31:48;98572.34;;;14.85;94.78
37856;BME280;23694;43.274;26.924;2023-04-16T07:34:14;98557.47;;;15.13;93.06
37856;BME280;23694;43.274;26.924;2023-04-16T07:36:40;98561.66;;;15.06;92.23
37856;BME280;23694;43.274;26.924;2023-04-16T07:39:06;98565.41;;;15.03;92.86
37856;BME280;23694;43.274;26.924;2023-04-16T07:41:32;98556.28;;;15.35;90.29
37856;BME280;23694;43.274;26.924;2023-04-16T07:43:58;98564.75;;;15.38;89.50
37856;BME280;23694;43.274;26.924;2023-04-16T07:46:24;98556.56;;;15.32;90.17
37856;BME280;23694;43.274;26.924;2023-04-16T07:48:50;98571.50;;;15.60;88.76
37856;BME280;23694;43.274;26.924;2023-04-16T07:51:17;98564.94;;;15.74;86.24
37856;BME280;23694;43.274;26.924;2023-04-16T07:53:43;98573.25;;;15.79;86.18
37856;BME280;23694;43.274;26.924;2023-04-16T07:56:09;98565.50;;;15.95;85.53
37856;BME280;23694;43.274;26.924;2023-04-16T07:58:35;98566.63;;;15.93;84.37
37856;BME280;23694;43.274;26.924;2023-04-16T08:01:01;98570.66;;;15.69;85.83
37856;BME280;23694;43.274;26.924;2023-04-16T08:03:27;98560.72;;;15.81;85.21
37856;BME280;23694;43.274;26.924;2023-04-16T08:05:53;98564.47;;;16.06;84.29
37856;BME280;23694;43.274;26.924;2023-04-16T08:08:20;98564.94;;;16.19;83.13
37856;BME280;23694;43.274;26.924;2023-04-16T08:10:46;98561.72;;;16.43;82.20
37856;BME280;23694;43.274;26.924;2023-04-16T08:13:12;98565.72;;;15.84;82.20
37856;BME280;23694;43.274;26.924;2023-04-16T08:15:38;98568.69;;;15.99;81.72
37856;BME280;23694;43.274;26.924;2023-04-16T08:18:04;98565.81;;;15.92;82.82
37856;BME280;23694;43.274;26.924;2023-04-16T08:20:32;98556.41;;;15.80;82.41
37856;BME280;23694;43.274;26.924;2023-04-16T08:22:58;98560.44;;;15.84;81.49
37856;BME280;23694;43.274;26.924;2023-04-16T08:25:24;98557.03;;;15.54;83.64
37856;BME280;23694;43.274;26.924;2023-04-16T08:27:50;98560.00;;;15.42;85.40
37856;BME280;23694;43.274;26.924;2023-04-16T08:30:16;98565.81;;;15.45;85.06
37856;BME280;23694;43.274;26.924;2023-04-16T08:32:42;98561.34;;;15.55;85.01
37856;BME280;23694;43.274;26.924;2023-04-16T08:35:08;98561.06;;;15.68;84.62
37856;BME280;23694;43.274;26.924;2023-04-16T08:37:35;98553.19;;;15.86;83.55
37856;BME280;23694;43.274;26.924;2023-04-16T08:40:01;98553.88;;;15.88;82.85
37856;BME280;23694;43.274;26.924;2023-04-16T08:42:31;98555.56;;;16.07;83.55
37856;BME280;23694;43.274;26.924;2023-04-16T08:45:07;98547.53;;;16.44;82.36
37856;BME280;23694;43.274;26.924;2023-04-16T08:47:34;98545.34;;;16.39;81.90
37856;BME280;23694;43.274;26.924;2023-04-16T08:50:04;98546.19;;;16.75;81.40
37856;BME280;23694;43.274;26.924;2023-04-16T08:52:31;98545.44;;;16.65;82.86
37856;BME280;23694;43.274;26.924;2023-04-16T08:55:05;98537.13;;;17.30;82.78
37856;BME280;23694;43.274;26.924;2023-04-16T08:57:41;98528.97;;;17.75;80.66
37856;BME280;23694;43.274;26.924;2023-04-16T09:00:10;98532.31;;;17.85;77.12
37856;BME280;23694;43.274;26.924;2023-04-16T09:02:36;98538.66;;;18.17;74.74
37856;BME280;23694;43.274;26.924;2023-04-16T09:05:04;98532.16;;;17.95;75.80
37856;BME280;23694;43.274;26.924;2023-04-16T09:07:33;98533.97;;;17.26;77.84
37856;BME280;23694;43.274;26.924;2023-04-16T09:09:59;98526.81;;;17.19;75.45
37856;BME280;23694;43.274;26.924;2023-04-16T09:12:29;98530.81;;;17.23;75.82
37856;BME280;23694;43.274;26.924;2023-04-16T09:14:56;98524.84;;;17.21;75.34
37856;BME280;23694;43.274;26.924;2023-04-16T09:17:24;98517.53;;;16.71;78.40
37856;BME280;23694;43.274;26.924;2023-04-16T09:19:51;98515.78;;;16.79;81.32
37856;BME280;23694;43.274;26.924;2023-04-16T09:22:17;98515.09;;;16.95;78.60
37856;BME280;23694;43.274;26.924;2023-04-16T09:24:43;98508.91;;;16.87;80.90
37856;BME280;23694;43.274;26.924;2023-04-16T09:27:10;98518.31;;;17.07;78.32
37856;BME280;23694;43.274;26.924;2023-04-16T09:29:39;98518.53;;;17.14;78.68
37856;BME280;23694;43.274;26.924;2023-04-16T09:32:07;98519.31;;;16.88;78.68
37856;BME280;23694;43.274;26.924;2023-04-16T09:34:37;98517.91;;;16.76;78.53
37856;BME280;23694;43.274;26.924;2023-04-16T09:37:18;98512.00;;;16.64;78.78
37856;BME280;23694;43.274;26.924;2023-04-16T09:39:52;98513.59;;;16.57;81.98
37856;BME280;23694;43.274;26.924;2023-04-16T09:42:37;98526.81;;;16.22;84.28
37856;BME280;23694;43.274;26.924;2023-04-16T09:45:03;98564.22;;;15.25;81.81
37856;BME280;23694;43.274;26.924;2023-04-16T09:47:40;98598.00;;;13.85;90.84
37856;BME280;23694;43.274;26.924;2023-04-16T09:50:08;98637.41;;;12.92;98.59
37856;BME280;23694;43.274;26.924;2023-04-16T09:52:36;98654.25;;;12.03;100.00
37856;BME280;23694;43.274;26.924;2023-04-16T09:55:05;98665.97;;;11.99;100.00
37856;BME280;23694;43.274;26.924;2023-04-16T09:57:31;98678.28;;;11.41;100.00
37856;BME280;23694;43.274;26.924;2023-04-16T10:00:05;98649.97;;;11.11;100.00
37856;BME280;23694;43.274;26.924;2023-04-16T10:02:32;98639.28;;;11.25;100.00
37856;BME280;23694;43.274;26.924;2023-04-16T10:05:02;98631.88;;;11.30;100.00
37856;BME280;23694;43.274;26.924;2023-04-16T10:07:33;98625.69;;;11.31;100.00
37856;BME280;23694;43.274;26.924;2023-04-16T10:10:00;98594.00;;;11.34;100.00
37856;BME280;23694;43.274;26.924;2023-04-16T10:12:28;98572.41;;;11.64;100.00
37856;BME280;23694;43.274;26.924;2023-04-16T10:14:55;98571.50;;;11.88;100.00
37856;BME280;23694;43.274;26.924;2023-04-16T10:17:21;98560.69;;;12.13;100.00
37856;BME280;23694;43.274;26.924;2023-04-16T10:19:49;98556.03;;;12.49;100.00
37856;BME280;23694;43.274;26.924;2023-04-16T10:22:16;98556.56;;;12.63;100.00
37856;BME280;23694;43.274;26.924;2023-04-16T10:24:42;98563.75;;;12.82;100.00
37856;BME280;23694;43.274;26.924;2023-04-16T10:27:09;98562.44;;;13.09;100.00
37856;BME280;23694;43.274;26.924;2023-04-16T10:29:36;98567.09;;;13.56;100.00
37856;BME280;23694;43.274;26.924;2023-04-16T10:32:02;98564.09;;;14.11;100.00
37856;BME280;23694;43.274;26.924;2023-04-16T10:34:29;98566.38;;;14.83;99.62
37856;BME280;23694;43.274;26.924;2023-04-16T10:36:56;98570.88;;;15.29;89.69
37856;BME280;23694;43.274;26.924;2023-04-16T10:39:23;98572.47;;;15.59;89.81
37856;BME280;23694;43.274;26.924;2023-04-16T10:41:50;98578.66;;;15.77;88.09
37856;BME280;23694;43.274;26.924;2023-04-16T10:44:30;98575.94;;;15.97;87.11
37856;BME280;23694;43.274;26.924;2023-04-16T10:46:58;98576.47;;;15.73;86.40
37856;BME280;23694;43.274;26.924;2023-04-16T10:49:25;98558.91;;;15.81;86.59
37856;BME280;23694;43.274;26.924;2023-04-16T10:52:08;98563.00;;;15.94;87.58
37856;BME280;23694;43.274;26.924;2023-04-16T10:54:36;98568.53;;;16.00;81.96
37856;BME280;23694;43.274;26.924;2023-04-16T10:57:03;98569.44;;;15.91;82.29
37856;BME280;23694;43.274;26.924;2023-04-16T10:59:31;98565.50;;;15.68;81.74
37856;BME280;23694;43.274;26.924;2023-04-16T11:01:59;98567.13;;;15.78;79.72
37856;BME280;23694;43.274;26.924;2023-04-16T11:04:33;98557.97;;;16.00;81.41
37856;BME280;23694;43.274;26.924;2023-04-16T11:10:04;98532.94;;;16.75;79.93
37856;BME280;23694;43.274;26.924;2023-04-16T11:15:13;98526.56;;;17.04;70.07
37856;BME280;23694;43.274;26.924;2023-04-16T11:17:48;98518.72;;;16.94;71.09
37856;BME280;23694;43.274;26.924;2023-04-16T11:20:19;98528.38;;;15.32;77.01
37856;BME280;23694;43.274;26.924;2023-04-16T11:22:46;98532.34;;;15.46;79.22
37856;BME280;23694;43.274;26.924;2023-04-16T11:25:12;98525.72;;;14.76;81.92
37856;BME280;23694;43.274;26.924;2023-04-16T11:27:43;98527.97;;;14.32;82.40
37856;BME280;23694;43.274;26.924;2023-04-16T11:30:10;98529.06;;;14.39;83.23
37856;BME280;23694;43.274;26.924;2023-04-16T11:32:37;98526.84;;;14.35;85.21
37856;BME280;23694;43.274;26.924;2023-04-16T11:35:15;98522.38;;;14.16;88.73
37856;BME280;23694;43.274;26.924;2023-04-16T11:37:41;98511.56;;;14.00;90.05
37856;BME280;23694;43.274;26.924;2023-04-16T11:40:08;98511.25;;;13.83;89.82
37856;BME280;23694;43.274;26.924;2023-04-16T11:42:37;98507.22;;;13.79;91.59
37856;BME280;23694;43.274;26.924;2023-04-16T11:45:06;98498.47;;;13.69;91.70
37856;BME280;23694;43.274;26.924;2023-04-16T11:47:42;98492.41;;;13.78;92.27
37856;BME280;23694;43.274;26.924;2023-04-16T11:52:43;98501.28;;;13.87;91.13
37856;BME280;23694;43.274;26.924;2023-04-16T11:55:09;98498.78;;;13.95;90.00
37856;BME280;23694;43.274;26.924;2023-04-16T11:57:35;98492.84;;;14.03;89.41
37856;BME280;23694;43.274;26.924;2023-04-16T12:00:03;98492.41;;;13.98;89.44
37856;BME280;23694;43.274;26.924;2023-04-16T12:05:05;98508.47;;;13.75;92.15
37856;BME280;23694;43.274;26.924;2023-04-16T12:07:44;98510.75;;;13.59;93.98
37856;BME280;23694;43.274;26.924;2023-04-16T12:10:11;98504.78;;;13.57;96.72
37856;BME280;23694;43.274;26.924;2023-04-16T12:12:37;98500.88;;;13.42;95.22
37856;BME280;23694;43.274;26.924;2023-04-16T12:15:03;98501.44;;;13.45;94.53
37856;BME280;23694;43.274;26.924;2023-04-16T12:17:31;98501.97;;;13.39;95.93
37856;BME280;23694;43.274;26.924;2023-04-16T12:19:59;98502.09;;;13.38;96.94
37856;BME280;23694;43.274;26.924;2023-04-16T12:22:30;98502.22;;;13.36;96.39
37856;BME280;23694;43.274;26.924;2023-04-16T12:25:03;98488.84;;;13.49;98.96
37856;BME280;23694;43.274;26.924;2023-04-16T12:27:49;98472.59;;;13.74;94.87
37856;BME280;23694;43.274;26.924;2023-04-16T12:30:20;98454.59;;;14.08;93.88
37856;BME280;23694;43.274;26.924;2023-04-16T12:32:49;98435.47;;;14.35;94.12
37856;BME280;23694;43.274;26.924;2023-04-16T12:35:33;98438.94;;;14.55;95.60
37856;BME280;23694;43.274;26.924;2023-04-16T12:38:00;98456.16;;;14.49;94.53
37856;BME280;23694;43.274;26.924;2023-04-16T12:40:26;98455.25;;;14.78;93.45
37856;BME280;23694;43.274;26.924;2023-04-16T12:42:52;98450.19;;;15.04;91.03
37856;BME280;23694;43.274;26.924;2023-04-16T12:45:18;98453.31;;;15.17;84.13
37856;BME280;23694;43.274;26.924;2023-04-16T12:47:45;98455.13;;;15.16;83.12
37856;BME280;23694;43.274;26.924;2023-04-16T12:50:11;98458.19;;;15.12;84.29
37856;BME280;23694;43.274;26.924;2023-04-16T12:52:37;98455.72;;;15.38;84.67
37856;BME280;23694;43.274;26.924;2023-04-16T12:55:03;98439.09;;;15.82;84.84
37856;BME280;23694;43.274;26.924;2023-04-16T12:57:30;98439.47;;;15.70;75.41
37856;BME280;23694;43.274;26.924;2023-04-16T12:59:56;98426.88;;;16.17;80.82
37856;BME280;23694;43.274;26.924;2023-04-16T13:02:24;98418.38;;;16.49;78.64
37856;BME280;23694;43.274;26.924;2023-04-16T13:04:51;98415.00;;;16.65;73.84
37856;BME280;23694;43.274;26.924;2023-04-16T13:07:17;98410.44;;;16.67;76.79
37856;BME280;23694;43.274;26.924;2023-04-16T13:09:44;98417.13;;;16.61;76.95
37856;BME280;23694;43.274;26.924;2023-04-16T13:12:11;98414.06;;;16.48;77.64
37856;BME280;23694;43.274;26.924;2023-04-16T13:14:37;98406.91;;;16.40;77.70
37856;BME280;23694;43.274;26.924;2023-04-16T13:17:04;98395.22;;;16.43;77.86